Time;durP1;ratioP1;P1;durP2;ratioP2;P2;SDS_P1;SDS_P2;PMS_P1;PMS_P2;Temp;Humidity;BMP_temperature;BMP_pressure;BME280_temperature;BME280_humidity;BME280_pressure;Samples;Min_cycle;Max_cycle;Signal;HPM_P1;HPM_P2
2021/08/01 00:02:09;;;;;;;0.10;0.10;;;;;;;24.70;43.77;99317.38;5030302;28;20503;-53
2021/08/01 00:04:35;;;;;;;0.10;0.10;;;;;;;24.69;43.83;99320.19;5030687;28;20460;-55
2021/08/01 00:07:03;;;;;;;0.00;0.00;;;;;;;24.73;43.78;99338.34;5030297;28;20500;-56
2021/08/01 00:09:28;;;;;;;0.10;0.10;;;;;;;24.69;43.77;99329.03;5030480;28;20049;-55
2021/08/01 00:11:54;;;;;;;0.10;0.10;;;;;;;24.73;43.87;99343.69;5029403;28;20045;-51
2021/08/01 00:14:20;;;;;;;0.20;0.20;;;;;;;24.72;43.84;99336.69;5030212;28;20049;-53
2021/08/01 00:16:46;;;;;;;0.30;0.30;;;;;;;24.71;43.76;99345.69;5030431;28;20048;-55
2021/08/01 00:19:12;;;;;;;0.28;0.28;;;;;;;24.71;43.90;99336.84;5030022;28;20187;-53
2021/08/01 00:21:38;;;;;;;0.20;0.20;;;;;;;24.62;44.01;99333.47;5030307;28;20534;-53
2021/08/01 00:24:05;;;;;;;0.10;0.10;;;;;;;24.69;43.96;99353.06;5028728;28;20045;-56
2021/08/01 00:26:30;;;;;;;0.10;0.10;;;;;;;24.60;43.92;99329.34;5030260;28;20049;-54
2021/08/01 00:28:58;;;;;;;0.20;0.20;;;;;;;24.67;44.01;99349.75;5028787;28;20046;-53
2021/08/01 00:31:24;;;;;;;0.20;0.20;;;;;;;24.66;44.00;99347.28;5029828;28;20053;-55
2021/08/01 00:33:51;;;;;;;0.20;0.20;;;;;;;24.68;44.09;99353.25;5030057;28;20128;-54
2021/08/01 00:36:17;;;;;;;0.10;0.10;;;;;;;24.62;44.00;99338.81;5029598;28;20132;-56
2021/08/01 00:38:43;;;;;;;0.17;0.17;;;;;;;24.65;44.02;99346.44;5029750;28;20140;-55
2021/08/01 00:41:12;;;;;;;0.80;0.45;;;;;;;24.64;44.03;99349.31;5028424;28;20080;-55
2021/08/01 00:43:38;;;;;;;1.77;0.30;;;;;;;24.64;43.97;99354.66;5039615;28;20150;-56
2021/08/01 00:46:04;;;;;;;0.25;0.25;;;;;;;24.54;44.11;99341.56;5049731;28;20053;-56
2021/08/01 00:48:33;;;;;;;0.10;0.10;;;;;;;24.63;44.02;99356.50;5048601;28;20106;-54
2021/08/01 00:50:59;;;;;;;0.10;0.10;;;;;;;24.62;44.05;99357.50;5048598;28;20045;-56
2021/08/01 00:53:26;;;;;;;0.10;0.10;;;;;;;24.60;44.18;99364.88;5048234;28;20150;-53
2021/08/01 00:55:52;;;;;;;0.68;0.68;;;;;;;24.53;44.21;99353.28;5049714;28;20057;-56
2021/08/01 00:58:38;;;;;;;0.10;0.10;;;;;;;24.57;44.13;99367.94;5048514;28;20056;-54
2021/08/01 01:01:15;;;;;;;0.10;0.10;;;;;;;24.54;44.15;99362.94;5048527;28;20041;-56
2021/08/01 01:03:48;;;;;;;0.10;0.10;;;;;;;24.58;44.23;99366.88;5048234;28;20430;-54
2021/08/01 01:06:21;;;;;;;0.10;0.10;;;;;;;24.57;44.21;99364.41;5049259;28;20045;-54
2021/08/01 01:09:05;;;;;;;0.20;0.20;;;;;;;24.57;44.13;99364.41;5048374;28;20083;-54
2021/08/01 01:11:50;;;;;;;0.30;0.30;;;;;;;24.58;44.19;99369.56;5049569;28;20057;-55
2021/08/01 01:14:17;;;;;;;0.40;0.13;;;;;;;24.59;44.23;99367.72;5031244;28;20048;-54
2021/08/01 01:16:46;;;;;;;0.10;0.10;;;;;;;24.59;44.13;99373.06;5031837;28;20602;-55
2021/08/01 01:19:37;;;;;;;0.00;0.00;;;;;;;24.59;44.14;99373.91;5031710;28;20091;-57
2021/08/01 01:22:07;;;;;;;0.10;0.10;;;;;;;24.62;44.10;99378.03;5049390;28;20133;-55
2021/08/01 01:24:39;;;;;;;0.08;0.08;;;;;;;24.62;44.06;99378.88;5048279;28;20041;-55
2021/08/01 01:27:37;;;;;;;0.10;0.10;;;;;;;24.61;44.13;99382.53;5048102;28;20045;-53
2021/08/01 01:30:04;;;;;;;0.00;0.00;;;;;;;24.62;44.12;99380.69;5031530;28;20427;-54
2021/08/01 01:32:37;;;;;;;0.10;0.10;;;;;;;24.62;44.08;99386.88;5048188;28;20510;-55
2021/08/01 01:35:20;;;;;;;0.15;0.15;;;;;;;24.63;44.14;99387.69;5048049;28;20522;-55
2021/08/01 01:37:51;;;;;;;0.20;0.20;;;;;;;24.54;44.09;99370.94;5048002;28;20057;-55
2021/08/01 01:40:43;;;;;;;0.22;0.22;;;;;;;24.63;43.93;99383.19;5048091;28;20052;-55
2021/08/01 01:43:32;;;;;;;0.22;0.22;;;;;;;24.68;43.93;99388.78;5036663;28;20175;-54
2021/08/01 01:45:59;;;;;;;0.08;0.08;;;;;;;24.72;43.85;99387.41;5048186;28;20048;-55
2021/08/01 01:48:26;;;;;;;0.10;0.10;;;;;;;24.76;43.75;99396.72;5047768;28;20049;-56
2021/08/01 01:50:54;;;;;;;0.10;0.10;;;;;;;24.81;43.65;99388.97;5049195;28;20119;-54
2021/08/01 01:53:21;;;;;;;0.15;0.15;;;;;;;24.85;43.53;99384.94;5049468;28;20466;-56
2021/08/01 01:55:47;;;;;;;0.10;0.10;;;;;;;24.95;43.21;99389.16;5035313;28;20096;-54
2021/08/01 01:58:13;;;;;;;0.20;0.20;;;;;;;25.14;42.88;99384.03;5051306;28;20526;-54
2021/08/01 02:00:41;;;;;;;0.10;0.10;;;;;;;25.34;42.28;99378.91;5052791;28;20041;-54
2021/08/01 02:03:08;;;;;;;0.15;0.15;;;;;;;25.60;41.75;99389.88;5052978;28;20056;-55
2021/08/01 02:06:00;;;;;;;0.20;0.20;;;;;;;25.82;41.34;99391.53;5029189;28;20052;-54
2021/08/01 02:08:57;;;;;;;0.30;0.30;;;;;;;26.15;40.38;99390.94;5037693;28;20135;-53
2021/08/01 02:12:11;;;;;;;0.20;0.20;;;;;;;26.39;39.84;99390.53;5051498;28;20049;-54
2021/08/01 02:14:42;;;;;;;0.10;0.10;;;;;;;26.23;40.16;99364.06;5052843;28;20045;-55
2021/08/01 02:17:11;;;;;;;0.30;0.30;;;;;;;26.40;40.13;99386.84;5067988;28;20045;-52
2021/08/01 02:19:39;;;;;;;0.20;0.20;;;;;;;26.67;39.40;99377.91;5067913;28;20056;-54
2021/08/01 02:22:08;;;;;;;0.20;0.20;;;;;;;26.72;39.16;99388.03;5051277;28;20128;-54
2021/08/01 02:24:34;;;;;;;0.10;0.10;;;;;;;26.75;39.11;99398.34;5034509;28;20052;-57
2021/08/01 02:27:01;;;;;;;0.30;0.30;;;;;;;26.91;38.92;99390.84;5067797;28;20048;-54
2021/08/01 02:29:27;;;;;;;0.20;0.20;;;;;;;27.20;38.17;99389.69;5034399;28;20052;-54
2021/08/01 02:31:55;;;;;;;0.10;0.10;;;;;;;27.27;38.34;99389.72;5051313;28;20148;-54
2021/08/01 02:34:29;;;;;;;0.10;0.10;;;;;;;27.56;37.67;99389.38;5052002;28;20531;-52
2021/08/01 02:36:56;;;;;;;0.10;0.10;;;;;;;27.80;36.83;99385.28;5034382;28;20533;-52
2021/08/01 02:39:23;;;;;;;0.20;0.20;;;;;;;28.10;36.41;99401.81;5067378;28;20040;-54
2021/08/01 02:41:51;;;;;;;0.43;0.43;;;;;;;28.21;36.42;99393.94;5050947;28;20079;-55
2021/08/01 02:44:31;;;;;;;0.20;0.20;;;;;;;28.40;35.91;99392.28;5050610;28;20414;-55
2021/08/01 02:46:58;;;;;;;0.30;0.30;;;;;;;28.51;35.67;99404.22;5052059;28;20048;-55
2021/08/01 02:49:27;;;;;;;0.10;0.10;;;;;;;28.65;35.42;99393.25;5034026;28;20099;-55
2021/08/01 02:51:56;;;;;;;0.30;0.30;;;;;;;28.79;35.12;99407.50;5050824;28;20056;-54
2021/08/01 02:54:23;;;;;;;0.20;0.20;;;;;;;28.74;35.02;99412.66;5050410;28;20127;-55
2021/08/01 02:56:51;;;;;;;0.10;0.10;;;;;;;28.75;34.90;99404.41;5050729;28;20060;-54
2021/08/01 02:59:17;;;;;;;0.30;0.30;;;;;;;29.10;34.35;99410.25;5066871;28;20080;-54
2021/08/01 03:01:44;;;;;;;0.10;0.10;;;;;;;29.28;34.22;99412.28;5050719;28;20418;-54
2021/08/01 03:04:14;;;;;;;0.13;0.13;;;;;;;29.11;34.33;99411.91;5032869;28;20063;-54
2021/08/01 03:06:41;;;;;;;0.20;0.20;;;;;;;28.86;34.80;99408.31;5034444;28;20048;-53
2021/08/01 03:09:09;;;;;;;0.20;0.20;;;;;;;29.09;34.40;99410.47;5050659;28;20465;-55
2021/08/01 03:12:06;;;;;;;0.17;0.17;;;;;;;29.23;34.11;99412.03;5036970;28;20052;-54
2021/08/01 03:14:54;;;;;;;0.20;0.20;;;;;;;29.33;33.93;99407.88;5050926;28;20053;-55
2021/08/01 03:17:40;;;;;;;0.22;0.22;;;;;;;29.94;32.83;99412.69;5050472;28;20155;-53
2021/08/01 03:20:26;;;;;;;0.20;0.20;;;;;;;30.53;31.95;99412.13;5051161;28;20531;-55
2021/08/01 03:23:41;;;;;;;0.10;0.10;;;;;;;30.91;31.04;99420.84;5051327;28;20526;-55
2021/08/01 03:26:47;;;;;;;0.35;0.35;;;;;;;31.11;30.66;99415.22;5064186;28;20052;-55
2021/08/01 03:29:33;;;;;;;0.30;0.30;;;;;;;31.21;30.57;99411.97;5036180;28;20048;-54
2021/08/01 03:32:22;;;;;;;0.30;0.30;;;;;;;31.18;30.64;99420.53;5050050;28;20045;-55
2021/08/01 03:35:12;;;;;;;0.20;0.20;;;;;;;31.13;30.55;99428.47;5051151;28;20052;-54
2021/08/01 03:38:18;;;;;;;0.20;0.20;;;;;;;30.98;30.90;99420.78;5050677;28;20057;-55
2021/08/01 03:41:28;;;;;;;0.40;0.40;;;;;;;30.89;31.16;99417.53;5039113;28;20080;-55
2021/08/01 03:44:14;;;;;;;0.10;0.10;;;;;;;30.76;31.54;99430.34;5033705;28;20652;-54
2021/08/01 03:47:00;;;;;;;0.25;0.25;;;;;;;30.86;31.28;99426.06;5031085;28;20419;-55
2021/08/01 03:49:48;;;;;;;0.30;0.30;;;;;;;31.21;30.53;99420.06;5030903;28;20046;-53
2021/08/01 03:52:33;;;;;;;0.20;0.20;;;;;;;31.61;29.94;99423.06;5030837;28;20084;-54
2021/08/01 03:55:19;;;;;;;0.20;0.20;;;;;;;31.82;29.64;99427.94;5030681;28;20112;-55
2021/08/01 03:58:05;;;;;;;0.17;0.17;;;;;;;31.89;29.50;99421.38;5030754;28;20053;-54
2021/08/01 04:00:51;;;;;;;0.38;0.38;;;;;;;32.08;29.07;99435.63;5030455;28;20490;-56
2021/08/01 04:03:37;;;;;;;0.10;0.10;;;;;;;31.97;29.41;99431.00;5030500;28;20056;-52
2021/08/01 04:06:23;;;;;;;0.10;0.10;;;;;;;31.51;30.02;99453.34;5029539;28;20053;-54
2021/08/01 04:09:09;;;;;;;0.20;0.20;;;;;;;31.09;30.80;99438.88;5043377;28;20144;-56
2021/08/01 04:11:55;;;;;;;0.10;0.10;;;;;;;30.82;31.44;99441.06;5030788;28;20471;-55
2021/08/01 04:14:41;;;;;;;0.00;0.00;;;;;;;30.64;31.72;99443.75;5030327;28;20088;-55
2021/08/01 04:17:29;;;;;;;0.32;0.32;;;;;;;30.47;31.84;99437.28;5029924;28;20144;-54
2021/08/01 04:20:15;;;;;;;0.10;0.10;;;;;;;30.50;31.85;99441.44;5029220;28;20049;-54
2021/08/01 04:23:01;;;;;;;0.13;0.13;;;;;;;30.65;31.70;99440.00;5030291;28;20132;-55
2021/08/01 04:25:47;;;;;;;0.10;0.10;;;;;;;30.75;31.77;99448.41;5030240;28;20396;-56
2021/08/01 04:28:33;;;;;;;0.13;0.13;;;;;;;30.80;31.77;99445.03;5030179;28;20115;-55
2021/08/01 04:31:19;;;;;;;0.20;0.20;;;;;;;30.91;31.50;99437.00;5029929;28;20068;-55
2021/08/01 04:34:05;;;;;;;0.50;0.50;;;;;;;31.45;30.55;99435.28;5030422;28;20053;-56
2021/08/01 04:36:51;;;;;;;0.25;0.25;;;;;;;31.56;30.35;99439.13;5043023;28;20545;-56
2021/08/01 04:39:36;;;;;;;0.13;0.13;;;;;;;31.57;30.55;99435.38;5029872;28;20049;-57
2021/08/01 04:42:23;;;;;;;0.25;0.25;;;;;;;31.55;30.56;99438.28;5030289;28;20045;-54
2021/08/01 04:45:09;;;;;;;0.13;0.13;;;;;;;31.65;30.13;99438.56;5049858;28;20052;-56
2021/08/01 04:47:55;;;;;;;0.20;0.20;;;;;;;31.74;30.08;99431.78;5049929;28;20056;-55
2021/08/01 04:50:40;;;;;;;0.20;0.20;;;;;;;31.92;29.97;99434.41;5049580;28;20049;-54
2021/08/01 04:53:26;;;;;;;0.20;0.20;;;;;;;31.93;29.82;99438.78;5049739;28;20091;-54
2021/08/01 04:56:12;;;;;;;0.20;0.20;;;;;;;31.91;29.77;99438.16;5048764;28;20045;-56
2021/08/01 04:58:58;;;;;;;0.10;0.10;;;;;;;31.86;30.15;99438.03;5049643;28;20077;-55
2021/08/01 05:01:46;;;;;;;0.10;0.10;;;;;;;32.05;29.86;99432.56;5049561;28;20418;-56
2021/08/01 05:04:32;;;;;;;0.20;0.20;;;;;;;32.29;29.41;99436.94;5049343;28;20056;-56
2021/08/01 05:07:18;;;;;;;0.40;0.40;;;;;;;32.39;28.87;99415.56;5048558;28;20142;-55
2021/08/01 05:10:04;;;;;;;0.30;0.30;;;;;;;32.50;29.08;99428.22;5048491;28;20045;-54
2021/08/01 05:12:50;;;;;;;0.32;0.32;;;;;;;32.78;28.59;99428.38;5034778;28;20045;-53
2021/08/01 05:15:36;;;;;;;0.30;0.30;;;;;;;32.94;28.15;99433.03;5049357;28;20049;-56
2021/08/01 05:18:22;;;;;;;0.20;0.20;;;;;;;33.14;28.10;99427.25;5061967;28;20052;-57
2021/08/01 05:21:07;;;;;;;0.30;0.30;;;;;;;33.06;27.82;99435.69;5049428;28;20053;-55
2021/08/01 05:23:53;;;;;;;0.30;0.30;;;;;;;32.62;28.57;99426.41;5049360;28;20049;-55
2021/08/01 05:26:39;;;;;;;0.20;0.20;;;;;;;32.58;29.03;99427.09;5049150;28;20052;-56
2021/08/01 05:29:25;;;;;;;0.40;0.40;;;;;;;32.63;28.69;99417.19;5052669;28;20044;-56
2021/08/01 05:32:11;;;;;;;0.17;0.17;;;;;;;32.35;28.93;99422.50;5053535;28;20135;-55
2021/08/01 05:34:57;;;;;;;0.57;0.57;;;;;;;32.30;29.55;99431.28;5053144;28;20494;-55
2021/08/01 05:37:43;;;;;;;0.30;0.30;;;;;;;33.02;28.08;99421.81;5052958;28;20088;-55
2021/08/01 05:40:28;;;;;;;0.20;0.20;;;;;;;33.51;27.42;99424.94;5052950;28;20057;-56
2021/08/01 05:43:14;;;;;;;0.10;0.10;;;;;;;33.61;27.09;99422.44;5053168;28;20198;-57
2021/08/01 05:46:00;;;;;;;0.20;0.20;;;;;;;33.74;27.29;99426.72;5053135;28;20110;-55
2021/08/01 05:48:46;;;;;;;0.30;0.30;;;;;;;33.77;26.99;99416.22;5053011;28;20491;-55
2021/08/01 05:51:32;;;;;;;0.20;0.20;;;;;;;33.99;26.67;99429.88;5052874;28;20128;-56
2021/08/01 05:54:18;;;;;;;0.20;0.20;;;;;;;34.17;26.41;99436.97;5052946;28;20242;-56
2021/08/01 05:57:03;;;;;;;0.20;0.20;;;;;;;34.27;26.13;99437.13;5053089;28;20057;-56
2021/08/01 05:59:49;;;;;;;0.20;0.20;;;;;;;34.48;26.22;99433.66;5052955;28;20525;-57
2021/08/01 06:02:35;;;;;;;0.20;0.20;;;;;;;34.63;25.93;99441.19;5052742;28;20107;-56
2021/08/01 06:05:21;;;;;;;0.20;0.20;;;;;;;34.56;25.72;99430.50;5052875;28;20065;-56
2021/08/01 06:08:07;;;;;;;0.25;0.25;;;;;;;34.74;25.76;99430.25;5051994;28;20080;-56
2021/08/01 06:10:53;;;;;;;0.20;0.20;;;;;;;35.03;25.36;99441.75;5052822;28;20080;-54
2021/08/01 06:13:39;;;;;;;0.30;0.30;;;;;;;35.11;25.19;99435.91;5052493;28;20076;-55
2021/08/01 06:16:26;;;;;;;0.25;0.25;;;;;;;35.25;24.77;99436.31;5052463;28;20048;-54
2021/08/01 06:19:12;;;;;;;0.47;0.40;;;;;;;35.50;24.66;99436.59;5052555;28;20592;-55
2021/08/01 06:21:38;;;;;;;0.20;0.20;;;;;;;35.55;24.52;99439.34;5052211;28;20454;-54
2021/08/01 06:24:04;;;;;;;0.20;0.20;;;;;;;35.80;24.40;99444.25;5052789;28;20091;-55
2021/08/01 06:26:30;;;;;;;0.20;0.20;;;;;;;36.50;23.47;99446.72;5050963;28;20055;-57
2021/08/01 06:28:56;;;;;;;0.20;0.20;;;;;;;38.91;20.79;99450.16;5052572;28;20049;-56
2021/08/01 06:31:22;;;;;;;0.30;0.30;;;;;;;40.15;18.88;99442.63;5051047;28;20414;-58
2021/08/01 06:33:49;;;;;;;0.40;0.40;;;;;;;40.69;18.40;99440.44;5052159;28;20116;-57
2021/08/01 06:36:15;;;;;;;0.30;0.30;;;;;;;41.05;17.74;99441.69;5052216;28;20045;-55
2021/08/01 06:38:42;;;;;;;0.32;0.32;;;;;;;40.62;18.27;99431.75;5051833;28;20056;-56
2021/08/01 06:41:08;;;;;;;0.30;0.30;;;;;;;40.05;18.77;99438.84;5050922;28;20592;-55
2021/08/01 06:43:34;;;;;;;0.30;0.30;;;;;;;40.36;18.37;99430.38;5041441;28;20050;-56
2021/08/01 06:46:00;;;;;;;0.20;0.20;;;;;;;39.85;18.91;99422.63;5032043;28;20459;-56
2021/08/01 06:48:27;;;;;;;0.30;0.30;;;;;;;40.09;18.67;99422.66;5047220;28;20056;-57
2021/08/01 06:50:54;;;;;;;0.20;0.20;;;;;;;39.30;19.50;99425.72;5032190;28;20053;-56
2021/08/01 06:53:20;;;;;;;0.10;0.10;;;;;;;37.81;21.21;99421.91;5032084;28;20050;-56
2021/08/01 06:55:47;;;;;;;0.17;0.17;;;;;;;36.82;22.05;99414.78;5031878;28;20049;-56
2021/08/01 06:58:19;;;;;;;0.30;0.30;;;;;;;36.28;22.94;99422.38;5047331;28;20053;-57
2021/08/01 07:00:48;;;;;;;0.10;0.10;;;;;;;35.61;23.75;99422.06;5031803;28;20142;-58
2021/08/01 07:03:14;;;;;;;0.85;0.32;;;;;;;35.23;24.44;99435.75;5032029;28;20076;-57
2021/08/01 07:05:56;;;;;;;0.10;0.10;;;;;;;34.78;24.87;99425.97;5031855;28;20200;-57
2021/08/01 07:08:41;;;;;;;0.10;0.10;;;;;;;34.45;25.23;99424.13;5030559;28;20063;-56
2021/08/01 07:11:27;;;;;;;0.30;0.30;;;;;;;34.13;25.56;99420.38;5031535;28;20052;-56
2021/08/01 07:14:13;;;;;;;0.10;0.10;;;;;;;33.83;26.09;99409.84;5031840;28;20057;-54
2021/08/01 07:17:01;;;;;;;0.10;0.10;;;;;;;33.60;26.82;99418.09;5031702;28;20050;-56
2021/08/01 07:19:49;;;;;;;0.10;0.10;;;;;;;33.44;26.52;99413.47;5031316;28;20064;-57
2021/08/01 07:22:35;;;;;;;0.10;0.10;;;;;;;33.38;27.12;99406.28;5031344;28;20434;-56
2021/08/01 07:25:23;;;;;;;0.20;0.20;;;;;;;33.30;27.00;99412.09;5031376;28;20515;-56
2021/08/01 07:28:09;;;;;;;0.00;0.00;;;;;;;33.22;26.76;99412.47;5044494;28;20050;-55
2021/08/01 07:30:55;;;;;;;0.10;0.10;;;;;;;33.17;27.23;99409.69;5044206;28;20076;-56
2021/08/01 07:33:41;;;;;;;0.45;0.45;;;;;;;33.10;27.37;99407.13;5031070;28;20072;-56
2021/08/01 07:36:27;;;;;;;0.10;0.10;;;;;;;33.06;27.22;99416.75;5031143;28;20104;-56
2021/08/01 07:39:13;;;;;;;0.10;0.10;;;;;;;33.03;27.25;99414.53;5031269;28;20049;-56
2021/08/01 07:41:59;;;;;;;0.20;0.20;;;;;;;32.94;27.39;99411.38;5031188;28;20199;-57
2021/08/01 07:44:56;;;;;;;0.50;0.50;;;;;;;32.77;27.85;99409.66;5030769;28;20049;-57
2021/08/01 07:47:42;;;;;;;0.10;0.10;;;;;;;32.58;27.87;99410.88;5043555;28;20056;-55
2021/08/01 07:50:28;;;;;;;0.47;0.30;;;;;;;32.39;28.13;99402.88;5030184;28;20080;-54
2021/08/01 07:53:14;;;;;;;0.10;0.10;;;;;;;32.26;28.49;99410.41;5030929;28;20499;-56
2021/08/01 07:56:00;;;;;;;3.53;1.13;;;;;;;32.03;28.82;99411.97;5030774;28;20303;-56
2021/08/01 07:58:46;;;;;;;0.00;0.00;;;;;;;31.91;29.03;99421.94;5030684;28;20049;-56
2021/08/01 08:01:32;;;;;;;0.00;0.00;;;;;;;31.75;29.16;99421.81;5030448;28;20057;-56
2021/08/01 08:04:18;;;;;;;0.00;0.00;;;;;;;31.58;29.35;99416.25;5030666;28;20080;-56
2021/08/01 08:07:04;;;;;;;0.10;0.10;;;;;;;31.50;29.68;99424.69;5030752;28;20066;-56
2021/08/01 08:09:50;;;;;;;0.03;0.03;;;;;;;31.39;29.72;99414.63;5030422;28;20423;-55
2021/08/01 08:12:36;;;;;;;0.10;0.10;;;;;;;31.28;30.18;99420.81;5030395;28;20057;-58
2021/08/01 08:15:22;;;;;;;0.73;0.73;;;;;;;31.14;30.53;99420.16;5030419;28;20049;-57
2021/08/01 08:18:08;;;;;;;0.00;0.00;;;;;;;31.02;30.59;99413.06;5030490;28;20085;-56
2021/08/01 08:20:53;;;;;;;0.10;0.10;;;;;;;31.02;30.92;99426.56;5029234;28;20042;-55
2021/08/01 08:23:39;;;;;;;0.15;0.15;;;;;;;30.91;30.98;99420.84;5029954;28;20056;-57
2021/08/01 08:26:25;;;;;;;0.00;0.00;;;;;;;30.91;30.87;99437.00;5030307;28;20051;-59
2021/08/01 08:29:11;;;;;;;0.10;0.10;;;;;;;30.88;31.06;99437.47;5029987;28;20041;-55
2021/08/01 08:31:58;;;;;;;0.08;0.08;;;;;;;30.88;31.01;99436.63;5042782;28;20045;-57
2021/08/01 08:34:44;;;;;;;0.10;0.10;;;;;;;30.88;31.04;99448.25;5029815;28;20041;-55
2021/08/01 08:37:30;;;;;;;0.10;0.10;;;;;;;30.80;31.10;99432.38;5042732;28;20049;-55
2021/08/01 08:40:16;;;;;;;0.20;0.20;;;;;;;30.84;31.33;99446.22;5042674;28;20402;-59
2021/08/01 08:43:01;;;;;;;0.13;0.13;;;;;;;30.78;31.11;99437.16;5035797;28;20128;-55
2021/08/01 08:45:47;;;;;;;0.52;0.52;;;;;;;30.82;31.23;99441.06;5049679;28;20414;-54
2021/08/01 08:48:33;;;;;;;0.20;0.20;;;;;;;30.83;31.13;99440.00;5048618;28;20061;-56
2021/08/01 08:51:19;;;;;;;0.05;0.05;;;;;;;30.82;31.20;99426.75;5048524;28;20056;-57
2021/08/01 08:54:34;;;;;;;0.00;0.00;;;;;;;30.89;31.01;99436.41;5049759;28;20118;-56
2021/08/01 08:57:29;;;;;;;0.30;0.30;;;;;;;30.96;30.96;99439.06;5034815;28;20049;-57
2021/08/01 09:00:15;;;;;;;0.10;0.10;;;;;;;31.01;30.91;99433.00;5049410;28;20128;-57
2021/08/01 09:03:01;;;;;;;0.10;0.10;;;;;;;31.02;31.01;99430.09;5048542;28;20132;-57
2021/08/01 09:05:51;;;;;;;0.32;0.32;;;;;;;31.01;31.04;99419.50;5049328;28;20060;-54
2021/08/01 09:08:37;;;;;;;0.40;0.40;;;;;;;31.02;30.83;99426.56;5049388;28;20049;-55
2021/08/01 09:11:24;;;;;;;0.35;0.25;;;;;;;31.02;31.09;99427.38;5034537;28;20091;-55
2021/08/01 09:14:17;;;;;;;0.10;0.10;;;;;;;31.03;31.08;99425.47;5049520;28;20497;-56
2021/08/01 09:17:04;;;;;;;0.10;0.10;;;;;;;31.04;30.98;99419.03;5049332;28;20574;-56
2021/08/01 09:19:53;;;;;;;0.10;0.10;;;;;;;30.97;31.10;99411.88;5049305;28;20087;-56
2021/08/01 09:22:39;;;;;;;0.13;0.13;;;;;;;30.95;31.00;99415.81;5048996;28;20051;-56
2021/08/01 09:25:27;;;;;;;0.05;0.05;;;;;;;30.91;31.19;99422.69;5048059;28;20530;-56
2021/08/01 09:28:18;;;;;;;0.10;0.10;;;;;;;30.75;31.40;99399.03;5049302;28;20077;-56
2021/08/01 09:31:05;;;;;;;0.03;0.03;;;;;;;30.74;31.61;99419.78;5049429;28;20115;-57
2021/08/01 09:33:53;;;;;;;0.40;0.40;;;;;;;30.71;31.38;99419.41;5049145;28;20343;-55
2021/08/01 09:36:55;;;;;;;0.00;0.00;;;;;;;30.68;31.75;99420.69;5047793;28;20538;-57
2021/08/01 09:39:41;;;;;;;0.10;0.10;;;;;;;30.63;31.71;99412.44;5047854;28;20045;-55
2021/08/01 09:42:40;;;;;;;0.10;0.10;;;;;;;30.58;31.80;99411.47;5048942;28;20633;-56
2021/08/01 09:45:26;;;;;;;0.10;0.10;;;;;;;30.49;31.84;99416.34;5048127;28;20056;-58
2021/08/01 09:48:19;;;;;;;0.15;0.15;;;;;;;30.38;32.04;99439.41;5048928;28;20614;-57
2021/08/01 09:51:05;;;;;;;0.10;0.10;;;;;;;30.19;32.30;99437.72;5061861;28;20052;-55
2021/08/01 09:53:56;;;;;;;0.20;0.20;;;;;;;30.16;32.53;99431.97;5048686;28;20430;-56
2021/08/01 09:56:51;;;;;;;0.10;0.10;;;;;;;30.18;32.65;99446.84;5033673;28;20122;-56
2021/08/01 09:59:37;;;;;;;0.45;0.45;;;;;;;30.19;32.70;99453.06;5048753;28;20084;-56
2021/08/01 10:02:37;;;;;;;0.03;0.03;;;;;;;30.15;32.80;99451.84;5048715;28;20060;-58
2021/08/01 10:05:25;;;;;;;0.00;0.00;;;;;;;30.06;32.83;99454.00;5048746;28;20513;-55
2021/08/01 10:08:12;;;;;;;0.00;0.00;;;;;;;30.06;32.79;99458.56;5048860;28;20049;-56
2021/08/01 10:11:09;;;;;;;0.10;0.10;;;;;;;29.94;33.12;99451.19;5033758;28;20049;-56
2021/08/01 10:13:55;;;;;;;0.10;0.10;;;;;;;29.94;33.26;99464.66;5034968;28;20051;-54
2021/08/01 10:16:41;;;;;;;0.47;0.30;;;;;;;29.85;33.59;99479.41;5052148;28;20126;-54
2021/08/01 10:19:27;;;;;;;0.00;0.00;;;;;;;29.74;33.74;99482.78;5037255;28;20183;-55
2021/08/01 10:22:13;;;;;;;0.00;0.00;;;;;;;29.65;33.93;99470.59;5052251;28;20111;-56
2021/08/01 10:25:01;;;;;;;0.13;0.13;;;;;;;29.64;34.11;99477.06;5051734;28;20106;-55
2021/08/01 10:27:48;;;;;;;0.00;0.00;;;;;;;29.69;34.09;99471.84;5064861;28;20053;-57
2021/08/01 10:30:34;;;;;;;0.10;0.10;;;;;;;29.72;34.16;99470.56;5037435;28;20084;-57
2021/08/01 10:33:22;;;;;;;0.00;0.00;;;;;;;29.69;34.14;99462.94;5052121;28;20059;-56
2021/08/01 10:36:08;;;;;;;0.10;0.10;;;;;;;29.63;34.64;99448.47;5037555;28;20044;-54
2021/08/01 10:38:59;;;;;;;0.00;0.00;;;;;;;29.50;34.67;99443.19;5037150;28;20119;-55
2021/08/01 10:41:45;;;;;;;0.13;0.13;;;;;;;29.57;34.53;99449.34;5050995;28;20202;-55
2021/08/01 10:44:31;;;;;;;0.10;0.10;;;;;;;29.62;34.74;99457.59;5051681;28;20517;-56
2021/08/01 10:47:17;;;;;;;0.00;0.00;;;;;;;29.74;34.72;99445.09;5036843;28;20045;-56
2021/08/01 10:50:05;;;;;;;0.10;0.10;;;;;;;29.80;34.61;99448.78;5036839;28;20056;-56
2021/08/01 10:53:19;;;;;;;0.10;0.10;;;;;;;29.90;34.62;99439.22;5050658;28;20131;-56
2021/08/01 10:56:17;;;;;;;0.10;0.10;;;;;;;29.95;34.37;99408.94;5051591;28;20477;-55
2021/08/01 10:59:03;;;;;;;0.15;0.15;;;;;;;29.97;34.33;99413.03;5050550;28;20064;-54
2021/08/01 11:02:10;;;;;;;0.17;0.17;;;;;;;30.02;34.29;99409.69;5051510;28;20144;-57
2021/08/01 11:04:56;;;;;;;0.10;0.10;;;;;;;30.08;34.48;99402.59;5051578;28;20524;-56
2021/08/01 11:07:43;;;;;;;0.00;0.00;;;;;;;30.10;34.19;99403.22;5051388;28;20422;-55
2021/08/01 11:10:29;;;;;;;0.17;0.17;;;;;;;30.06;34.36;99393.94;5051311;28;20045;-56
2021/08/01 11:13:24;;;;;;;0.10;0.10;;;;;;;29.97;34.43;99396.88;5036748;28;20048;-56
2021/08/01 11:16:12;;;;;;;0.30;0.30;;;;;;;29.87;34.74;99374.22;5051331;28;20186;-57
2021/08/01 11:18:58;;;;;;;0.10;0.10;;;;;;;29.70;34.94;99368.53;5036475;28;20056;-57
2021/08/01 11:21:47;;;;;;;0.20;0.20;;;;;;;29.46;35.11;99350.47;5036301;28;20048;-55
2021/08/01 11:24:33;;;;;;;0.10;0.10;;;;;;;29.45;35.49;99365.78;5050239;28;20446;-57
2021/08/01 11:27:19;;;;;;;0.00;0.00;;;;;;;29.30;35.87;99362.59;5049746;28;20056;-56
2021/08/01 11:30:05;;;;;;;0.00;0.00;;;;;;;29.15;36.22;99353.97;5050964;28;20051;-55
2021/08/01 11:32:51;;;;;;;0.10;0.10;;;;;;;29.06;36.32;99365.19;5051075;28;20053;-57
2021/08/01 11:35:37;;;;;;;0.10;0.10;;;;;;;28.95;36.49;99362.16;5050704;28;20140;-55
2021/08/01 11:38:23;;;;;;;0.20;0.20;;;;;;;28.86;36.68;99366.09;5050837;28;20055;-57
2021/08/01 11:41:09;;;;;;;0.15;0.15;;;;;;;28.78;37.13;99370.91;5050988;28;20045;-60
2021/08/01 11:44:01;;;;;;;0.13;0.13;;;;;;;28.70;37.26;99363.06;5050610;28;20044;-59
2021/08/01 11:47:00;;;;;;;0.05;0.05;;;;;;;28.65;37.33;99374.44;5050461;28;20041;-59
2021/08/01 11:49:48;;;;;;;0.10;0.10;;;;;;;28.57;37.66;99385.41;5050561;28;20051;-58
2021/08/01 11:52:44;;;;;;;0.10;0.10;;;;;;;28.49;37.73;99382.94;5050602;28;20067;-58
2021/08/01 11:55:30;;;;;;;0.10;0.10;;;;;;;28.45;38.19;99381.72;5050660;28;20045;-59
2021/08/01 11:58:16;;;;;;;0.05;0.05;;;;;;;28.42;38.02;99395.56;5050611;28;20053;-58
2021/08/01 12:01:02;;;;;;;0.17;0.17;;;;;;;28.43;38.41;99406.13;5035326;28;20084;-54
2021/08/01 12:03:51;;;;;;;0.40;0.40;;;;;;;28.42;38.33;99422.44;5050327;28;20041;-58
2021/08/01 12:06:38;;;;;;;0.10;0.10;;;;;;;28.41;38.64;99435.03;5050556;28;20327;-57
2021/08/01 12:09:31;;;;;;;0.10;0.10;;;;;;;28.25;38.74;99421.22;5050536;28;20056;-57
2021/08/01 12:12:25;;;;;;;0.10;0.10;;;;;;;28.29;39.40;99431.34;5035534;28;20052;-58
2021/08/01 12:15:11;;;;;;;0.40;0.40;;;;;;;28.28;39.62;99437.72;5049455;28;20060;-58
2021/08/01 12:17:57;;;;;;;0.00;0.00;;;;;;;28.25;39.52;99445.38;5050312;28;20103;-59
2021/08/01 12:20:43;;;;;;;0.10;0.10;;;;;;;28.14;39.81;99430.72;5049313;28;20041;-58
2021/08/01 12:23:36;;;;;;;0.00;0.00;;;;;;;28.11;39.87;99412.34;5035607;28;20596;-59
2021/08/01 12:26:38;;;;;;;0.00;0.00;;;;;;;28.19;40.25;99424.72;5050182;28;20123;-56
2021/08/01 12:29:35;;;;;;;0.35;0.35;;;;;;;28.17;39.95;99410.69;5050455;28;20049;-58
2021/08/01 12:32:28;;;;;;;0.00;0.00;;;;;;;28.08;40.74;99377.03;5050093;28;20060;-56
2021/08/01 12:35:16;;;;;;;0.20;0.20;;;;;;;28.03;40.60;99396.41;5050140;28;20420;-58
2021/08/01 12:38:03;;;;;;;0.30;0.30;;;;;;;27.99;41.05;99386.28;5049507;28;20529;-58
2021/08/01 12:40:50;;;;;;;0.10;0.10;;;;;;;27.94;41.07;99371.63;5034978;28;20076;-58
2021/08/01 12:43:37;;;;;;;0.00;0.00;;;;;;;28.06;40.96;99384.47;5037877;28;20447;-59
2021/08/01 12:46:22;;;;;;;0.00;0.00;;;;;;;28.12;40.75;99383.63;5029833;28;20053;-58